Time;durP1;ratioP1;P1;durP2;ratioP2;P2;SDS_P1;SDS_P2;PMS_P1;PMS_P2;Temp;Humidity;BMP_temperature;BMP_pressure;BME280_temperature;BME280_humidity;BME280_pressure;Samples;Min_cycle;Max_cycle;Signal;HPM_P1;HPM_P2
2022/12/31 00:01:29;;;;;;;24.67;9.77;;;;;;;6.51;68.89;100149.50;6015357;23;20157;-85
2022/12/31 00:03:56;;;;;;;25.63;10.17;;;;;;;6.56;69.08;100160.69;6040569;23;20165;-85
2022/12/31 00:06:23;;;;;;;22.57;9.70;;;;;;;6.58;69.47;100156.31;6040201;23;20217;-85
2022/12/31 00:08:49;;;;;;;21.57;10.27;;;;;;;6.67;69.24;100166.56;6016242;23;20177;-86
2022/12/31 00:11:15;;;;;;;19.37;10.10;;;;;;;6.74;69.38;100174.22;6040088;23;20232;-86
2022/12/31 00:13:42;;;;;;;22.67;11.40;;;;;;;6.75;68.85;100169.88;6040206;23;20220;-86
2022/12/31 00:16:13;;;;;;;25.47;11.43;;;;;;;6.81;68.80;100165.38;6039920;23;20181;-86
2022/12/31 00:18:42;;;;;;;23.30;11.03;;;;;;;6.83;67.94;100167.97;6040819;23;20142;-86
2022/12/31 00:21:09;;;;;;;17.67;8.43;;;;;;;6.72;68.59;100169.91;6040409;23;20150;-86
2022/12/31 00:23:35;;;;;;;21.00;9.47;;;;;;;6.80;67.66;100168.88;6015220;23;20217;-86
2022/12/31 00:26:07;;;;;;;24.43;9.83;;;;;;;6.80;67.62;100168.00;6015105;23;20158;-85
2022/12/31 00:28:34;;;;;;;22.00;10.27;;;;;;;6.63;67.82;100178.78;6040203;23;20154;-86
2022/12/31 00:31:10;;;;;;;21.00;11.07;;;;;;;6.53;68.23;100176.38;6040383;23;20646;-86
2022/12/31 00:33:36;;;;;;;21.27;10.03;;;;;;;6.60;68.13;100181.44;6015151;23;20169;-86
2022/12/31 00:36:12;;;;;;;27.10;10.53;;;;;;;6.55;68.25;100183.28;6039868;23;20188;-86
2022/12/31 00:38:38;;;;;;;28.93;11.40;;;;;;;6.58;67.61;100177.16;6040281;23;20150;-86
2022/12/31 00:41:04;;;;;;;22.47;11.40;;;;;;;6.72;68.12;100182.94;6039831;23;20626;-86
2022/12/31 00:43:31;;;;;;;25.70;11.30;;;;;;;6.72;67.88;100189.03;6040104;23;20161;-86
2022/12/31 00:45:56;;;;;;;21.13;10.60;;;;;;;6.60;68.12;100184.03;6015244;23;20217;-86
2022/12/31 00:48:22;;;;;;;23.43;10.77;;;;;;;6.54;68.40;100181.56;6040300;23;20153;-86
2022/12/31 00:50:47;;;;;;;24.73;10.40;;;;;;;6.59;68.62;100184.94;6040203;23;20476;-87
2022/12/31 00:53:13;;;;;;;25.67;11.73;;;;;;;6.62;67.84;100190.09;6039933;23;20150;-86
2022/12/31 00:55:38;;;;;;;29.13;11.30;;;;;;;6.65;68.01;100184.84;6039595;23;20223;-86
2022/12/31 00:58:04;;;;;;;20.23;10.77;;;;;;;6.72;67.31;100186.41;6040028;23;20162;-86
2022/12/31 01:00:29;;;;;;;24.33;11.43;;;;;;;6.75;66.97;100183.75;6014826;23;20481;-87
2022/12/31 01:02:55;;;;;;;25.43;11.40;;;;;;;6.74;66.66;100182.03;6040517;23;20158;-87
2022/12/31 01:05:20;;;;;;;25.50;12.63;;;;;;;6.69;66.91;100183.88;6040219;23;20188;-86
2022/12/31 01:07:46;;;;;;;28.80;10.87;;;;;;;6.65;66.98;100189.19;6039640;23;20169;-86
2022/12/31 01:10:11;;;;;;;30.00;11.10;;;;;;;6.48;67.42;100189.50;6039610;23;20162;-86
2022/12/31 01:12:36;;;;;;;26.90;10.20;;;;;;;6.38;67.69;100190.56;6040065;23;20154;-86
2022/12/31 01:15:02;;;;;;;22.13;10.37;;;;;;;6.37;67.23;100194.03;6039388;23;20657;-87
2022/12/31 01:17:28;;;;;;;24.17;10.20;;;;;;;6.39;67.78;100196.63;6039354;23;20195;-86
2022/12/31 01:19:53;;;;;;;18.70;9.17;;;;;;;6.33;67.50;100196.75;6039852;23;20255;-86
2022/12/31 01:22:19;;;;;;;21.80;9.70;;;;;;;6.33;67.53;100187.19;6039997;23;20154;-86
2022/12/31 01:24:44;;;;;;;22.90;9.23;;;;;;;6.36;67.84;100183.66;6039807;23;20221;-87
2022/12/31 01:27:10;;;;;;;21.20;7.83;;;;;;;6.31;67.83;100178.56;6039490;23;20221;-87
2022/12/31 01:29:35;;;;;;;27.97;12.13;;;;;;;6.30;67.79;100174.22;6014547;23;20167;-86
2022/12/31 01:32:01;;;;;;;21.80;9.93;;;;;;;6.31;68.05;100178.56;6039199;23;20153;-86
2022/12/31 01:34:26;;;;;;;20.07;8.80;;;;;;;6.32;67.45;100185.47;6039612;23;20157;-86
2022/12/31 01:36:52;;;;;;;24.33;10.83;;;;;;;6.40;67.31;100185.31;6039435;23;20169;-87
2022/12/31 01:39:17;;;;;;;22.57;9.27;;;;;;;6.48;66.52;100180.81;6039390;23;20481;-86
2022/12/31 01:41:44;;;;;;;24.10;11.17;;;;;;;6.50;65.95;100185.09;6039400;23;20157;-87
2022/12/31 01:44:10;;;;;;;23.43;10.77;;;;;;;6.46;66.55;100185.22;6014497;23;20534;-86
2022/12/31 01:46:37;;;;;;;18.50;8.97;;;;;;;6.27;66.80;100176.88;6039652;23;20160;-86
2022/12/31 01:49:23;;;;;;;23.17;9.20;;;;;;;6.24;67.28;100187.34;6039218;23;20586;-86
2022/12/31 01:51:56;;;;;;;21.37;9.33;;;;;;;6.22;67.19;100183.91;6039623;23;20149;-86
2022/12/31 01:54:26;;;;;;;15.90;8.47;;;;;;;6.21;67.59;100197.81;6039896;23;20142;-86
2022/12/31 01:56:52;;;;;;;22.97;9.47;;;;;;;6.23;67.45;100203.88;6039580;23;20261;-86
2022/12/31 01:59:20;;;;;;;19.40;8.77;;;;;;;6.26;67.11;100201.22;6039089;23;20221;-86
2022/12/31 02:01:47;;;;;;;21.70;9.20;;;;;;;6.40;67.29;100206.16;6039204;23;20217;-86
2022/12/31 02:04:15;;;;;;;20.30;8.23;;;;;;;6.34;66.93;100194.09;6014416;23;20153;-86
2022/12/31 02:06:46;;;;;;;21.67;9.97;;;;;;;6.13;67.19;100189.31;6039493;23;20478;-86
2022/12/31 02:09:12;;;;;;;16.93;8.80;;;;;;;6.15;67.15;100198.81;6039932;23;20138;-87
2022/12/31 02:11:38;;;;;;;16.83;8.47;;;;;;;6.18;67.53;100192.69;6039491;23;20498;-87
2022/12/31 02:14:17;;;;;;;22.53;9.93;;;;;;;6.13;68.17;100189.31;6039042;23;20181;-87
2022/12/31 02:16:54;;;;;;;21.73;11.03;;;;;;;6.08;67.92;100191.97;6039340;23;20160;-87
2022/12/31 02:19:38;;;;;;;28.83;10.37;;;;;;;6.04;68.51;100184.25;6014230;23;20161;-87
2022/12/31 02:22:37;;;;;;;20.30;8.40;;;;;;;6.14;68.50;100183.19;6039463;23;20255;-87
2022/12/31 02:25:09;;;;;;;19.17;9.70;;;;;;;6.26;68.74;100180.41;6039854;23;20138;-87
2022/12/31 02:27:37;;;;;;;17.03;8.20;;;;;;;6.29;68.68;100180.31;6039466;23;20142;-87
2022/12/31 02:30:17;;;;;;;28.17;9.80;;;;;;;6.31;68.63;100181.16;6039054;23;20650;-86
2022/12/31 02:33:01;;;;;;;22.20;9.60;;;;;;;6.32;69.13;100188.06;6039473;23;20137;-86
2022/12/31 02:35:40;;;;;;;20.30;9.43;;;;;;;6.32;69.12;100188.06;6038967;23;20681;-86
2022/12/31 02:38:14;;;;;;;18.17;8.83;;;;;;;6.43;68.79;100185.25;6039746;23;20221;-86
2022/12/31 02:40:40;;;;;;;26.90;10.33;;;;;;;6.51;68.41;100197.25;6039723;23;20184;-86
2022/12/31 02:43:06;;;;;;;20.33;8.77;;;;;;;6.38;68.27;100203.59;6039364;23;20574;-86
2022/12/31 02:45:40;;;;;;;23.57;9.73;;;;;;;6.29;68.54;100200.31;6039238;23;20593;-86
2022/12/31 02:48:26;;;;;;;24.60;9.77;;;;;;;6.30;68.69;100202.88;6039089;23;20149;-86
2022/12/31 02:51:12;;;;;;;18.70;9.30;;;;;;;6.32;68.70;100211.50;6039447;23;20149;-86
2022/12/31 02:53:55;;;;;;;18.70;7.97;;;;;;;6.31;69.03;100207.19;6039323;23;20142;-86
2022/12/31 02:56:30;;;;;;;19.90;9.50;;;;;;;6.34;69.00;100220.13;6039608;23;20248;-86
2022/12/31 03:02:15;;;;;;;20.10;10.37;;;;;;;6.41;68.86;100210.47;6039728;23;20228;-86
2022/12/31 03:04:53;;;;;;;18.10;9.70;;;;;;;6.43;68.63;100216.50;6039298;23;20134;-87
2022/12/31 03:07:25;;;;;;;19.27;8.80;;;;;;;6.40;68.53;100208.75;6038977;23;20138;-86
2022/12/31 03:09:51;;;;;;;23.37;9.97;;;;;;;6.34;68.38;100217.53;6014049;23;20486;-86
2022/12/31 03:15:05;;;;;;;24.77;10.73;;;;;;;6.30;68.30;100208.06;6039007;23;20260;-86
2022/12/31 03:17:31;;;;;;;28.83;12.83;;;;;;;6.32;68.39;100200.22;6038993;23;20226;-86
2022/12/31 03:22:42;;;;;;;23.53;10.97;;;;;;;6.33;68.26;100208.03;6039368;23;20149;-86
2022/12/31 03:27:59;;;;;;;21.17;10.03;;;;;;;6.38;67.87;100211.41;6040468;23;20528;-86
2022/12/31 03:30:24;;;;;;;18.57;9.10;;;;;;;6.47;67.83;100208.59;6040412;23;20153;-86
2022/12/31 03:32:50;;;;;;;23.73;9.70;;;;;;;6.47;67.21;100208.59;6040621;23;20213;-86
2022/12/31 03:35:19;;;;;;;15.53;7.93;;;;;;;6.47;66.55;100215.59;6040416;23;20182;-86
2022/12/31 03:37:45;;;;;;;17.37;9.10;;;;;;;6.39;66.70;100218.34;6040497;23;20150;-86
2022/12/31 03:40:13;;;;;;;18.03;8.17;;;;;;;6.31;67.27;100212.41;6040499;23;20157;-87
2022/12/31 03:42:40;;;;;;;18.37;8.10;;;;;;;6.24;66.89;100221.19;6040457;23;20157;-86
2022/12/31 03:45:06;;;;;;;19.97;9.37;;;;;;;6.18;66.59;100221.31;6040439;23;20265;-86
2022/12/31 03:47:32;;;;;;;24.10;9.63;;;;;;;6.14;67.00;100224.84;6040470;23;20162;-86
2022/12/31 03:49:58;;;;;;;26.70;10.73;;;;;;;6.13;66.79;100220.53;6040398;23;20540;-87
2022/12/31 03:52:23;;;;;;;29.87;11.50;;;;;;;6.13;67.05;100220.53;6015626;23;20162;-86
2022/12/31 03:54:49;;;;;;;22.03;9.60;;;;;;;6.12;66.94;100224.88;6040600;23;20178;-86
2022/12/31 03:57:14;;;;;;;27.67;11.30;;;;;;;6.08;66.93;100219.72;6040669;23;20154;-86
2022/12/31 03:59:39;;;;;;;26.60;10.90;;;;;;;5.92;66.85;100226.13;6040409;23;20150;-86
2022/12/31 04:02:05;;;;;;;20.53;8.60;;;;;;;5.94;67.20;100225.19;6040835;23;20154;-86
2022/12/31 04:04:31;;;;;;;23.33;8.63;;;;;;;6.00;67.29;100234.66;6040179;23;20228;-86
2022/12/31 04:06:56;;;;;;;17.03;7.90;;;;;;;5.99;66.96;100238.13;6040591;23;20158;-86
2022/12/31 04:09:22;;;;;;;19.33;8.90;;;;;;;6.00;67.46;100245.06;6040836;23;20192;-87
2022/12/31 04:11:47;;;;;;;18.03;7.27;;;;;;;6.00;67.48;100245.91;6040771;23;20229;-87
2022/12/31 04:14:13;;;;;;;14.73;7.73;;;;;;;6.00;67.13;100234.66;6015074;23;20174;-87
2022/12/31 04:16:39;;;;;;;19.77;9.63;;;;;;;5.99;67.79;100238.13;6015142;23;20273;-86
2022/12/31 04:19:04;;;;;;;16.60;7.87;;;;;;;5.99;67.22;100233.78;6040067;23;20154;-86
2022/12/31 04:21:30;;;;;;;20.23;8.80;;;;;;;6.08;66.95;100240.56;6040108;23;20150;-86
2022/12/31 04:23:55;;;;;;;26.47;8.67;;;;;;;6.06;66.91;100239.72;6040019;23;20154;-86
2022/12/31 04:26:21;;;;;;;19.90;8.57;;;;;;;5.95;66.61;100236.44;6040366;23;20161;-86
2022/12/31 04:28:46;;;;;;;14.37;7.70;;;;;;;5.91;66.12;100247.78;6039883;23;20185;-86
2022/12/31 04:31:12;;;;;;;19.80;8.50;;;;;;;5.87;66.39;100251.34;6040011;23;20149;-85
2022/12/31 04:33:37;;;;;;;21.47;10.67;;;;;;;5.80;66.12;100257.47;6039939;23;20149;-85
2022/12/31 04:36:04;;;;;;;32.93;12.80;;;;;;;5.75;66.21;100254.09;6039917;23;20192;-85
2022/12/31 04:38:30;;;;;;;39.50;15.30;;;;;;;5.71;65.95;100252.44;6039452;23;20150;-85
2022/12/31 04:43:40;;;;;;;28.47;11.40;;;;;;;5.75;66.21;100265.34;6040023;23;20152;-85
2022/12/31 04:46:06;;;;;;;22.80;11.87;;;;;;;5.66;65.67;100264.66;6039885;23;20181;-86
2022/12/31 04:48:32;;;;;;;33.93;13.13;;;;;;;5.78;65.50;100269.66;6039745;23;20178;-85
2022/12/31 04:50:58;;;;;;;24.43;10.87;;;;;;;5.82;65.36;100266.09;6014895;23;20172;-86
2022/12/31 04:53:24;;;;;;;27.17;12.57;;;;;;;5.83;65.42;100268.72;6039779;23;20243;-85
2022/12/31 04:55:50;;;;;;;37.20;14.87;;;;;;;5.73;65.62;100267.13;6039941;23;20181;-86
2022/12/31 04:58:16;;;;;;;31.50;14.87;;;;;;;5.70;66.17;100271.50;6039740;23;20188;-86
2022/12/31 05:00:43;;;;;;;19.83;10.27;;;;;;;5.57;66.44;100271.69;6014866;23;20161;-86
2022/12/31 05:03:09;;;;;;;25.37;9.10;;;;;;;5.47;67.10;100267.50;6015464;23;20161;-86
2022/12/31 05:05:37;;;;;;;23.07;10.47;;;;;;;5.54;67.22;100273.47;6040071;23;20563;-86
2022/12/31 05:08:03;;;;;;;19.67;9.83;;;;;;;5.67;67.68;100281.94;6039572;23;20158;-86
2022/12/31 05:10:28;;;;;;;16.30;9.03;;;;;;;5.65;67.73;100273.31;6040294;23;20441;-86
2022/12/31 05:12:54;;;;;;;21.90;9.73;;;;;;;5.63;68.75;100269.88;6039440;23;20646;-85
2022/12/31 05:15:19;;;;;;;19.00;9.00;;;;;;;5.60;69.28;100276.00;6039892;23;20181;-86
2022/12/31 05:17:45;;;;;;;19.40;10.07;;;;;;;5.74;69.16;100275.81;6039949;23;20255;-86
2022/12/31 05:20:10;;;;;;;20.10;10.03;;;;;;;5.82;69.35;100276.50;6039849;23;20233;-86
2022/12/31 05:22:36;;;;;;;24.83;9.37;;;;;;;5.93;69.88;100278.13;6014042;23;20240;-85
2022/12/31 05:25:01;;;;;;;19.50;10.80;;;;;;;6.01;69.62;100278.00;6039432;23;20215;-86
2022/12/31 05:27:29;;;;;;;17.53;8.00;;;;;;;5.98;70.12;100272.81;6039461;23;20154;-86
2022/12/31 05:29:55;;;;;;;16.93;7.27;;;;;;;6.00;69.91;100286.69;6039512;23;20594;-86
2022/12/31 05:32:20;;;;;;;19.53;8.50;;;;;;;6.04;70.50;100284.00;6039480;23;20150;-86
2022/12/31 05:34:46;;;;;;;20.43;7.87;;;;;;;6.06;70.29;100283.97;6038899;23;20185;-86
2022/12/31 05:37:11;;;;;;;17.00;7.23;;;;;;;6.13;71.03;100289.06;6039016;23;20158;-86
2022/12/31 05:39:37;;;;;;;12.23;6.63;;;;;;;6.25;70.80;100287.16;6039107;23;20180;-86
2022/12/31 05:42:02;;;;;;;15.17;6.53;;;;;;;6.33;70.68;100286.13;6038978;23;20161;-86
2022/12/31 05:44:28;;;;;;;9.17;5.33;;;;;;;6.38;71.14;100284.31;6039389;23;20153;-86
2022/12/31 05:46:53;;;;;;;10.30;5.90;;;;;;;6.39;71.30;100291.25;6038756;23;20579;-86
2022/12/31 05:49:19;;;;;;;16.87;6.43;;;;;;;6.40;71.77;100292.09;6038839;23;20149;-85
2022/12/31 05:51:44;;;;;;;10.40;5.20;;;;;;;6.42;71.98;100301.59;6037528;23;20594;-85
2022/12/31 05:54:10;;;;;;;13.03;5.40;;;;;;;6.51;72.30;100297.97;6038592;23;20161;-86
2022/12/31 05:56:35;;;;;;;7.60;4.33;;;;;;;6.61;71.85;100308.19;6037084;23;20543;-85
2022/12/31 05:59:01;;;;;;;12.93;7.23;;;;;;;6.69;71.82;100301.09;6012291;23;20229;-85
2022/12/31 06:01:26;;;;;;;22.47;11.70;;;;;;;6.74;72.08;100294.06;6014667;23;20174;-85
2022/12/31 06:03:52;;;;;;;26.57;13.97;;;;;;;6.78;71.28;100300.94;6038934;23;20205;-86
2022/12/31 06:06:17;;;;;;;32.73;14.17;;;;;;;6.81;70.45;100300.88;6014338;23;20153;-86
2022/12/31 06:08:43;;;;;;;32.50;13.27;;;;;;;6.82;69.86;100305.22;6039569;23;20218;-86
2022/12/31 06:11:08;;;;;;;31.10;13.30;;;;;;;6.82;69.22;100307.81;6039552;23;20188;-86
2022/12/31 06:13:34;;;;;;;20.40;11.23;;;;;;;6.74;68.32;100319.25;6039240;23;20633;-86
2022/12/31 06:16:07;;;;;;;23.63;10.67;;;;;;;6.69;68.18;100327.16;6039114;23;20177;-86
2022/12/31 06:18:33;;;;;;;23.53;9.23;;;;;;;6.72;69.05;100326.25;6039464;23;20578;-85
2022/12/31 06:20:58;;;;;;;19.47;9.40;;;;;;;6.79;69.38;100328.72;6039106;23;20150;-85
2022/12/31 06:23:23;;;;;;;29.57;12.00;;;;;;;6.85;69.57;100321.66;6014612;23;20171;-85
2022/12/31 06:25:49;;;;;;;36.83;15.03;;;;;;;6.90;69.56;100320.69;6039490;23;20226;-86
2022/12/31 06:28:14;;;;;;;36.67;16.00;;;;;;;6.92;68.78;100323.28;6014206;23;20273;-86
2022/12/31 06:30:40;;;;;;;31.80;13.77;;;;;;;6.91;69.02;100319.81;6038751;23;20225;-86
2022/12/31 06:33:05;;;;;;;32.53;13.07;;;;;;;7.03;69.00;100323.91;6039145;23;20153;-86
2022/12/31 06:35:31;;;;;;;45.10;19.17;;;;;;;7.07;68.83;100326.47;6039013;23;20193;-86
2022/12/31 06:37:56;;;;;;;48.13;19.70;;;;;;;6.99;69.90;100324.88;6038585;23;20590;-86
2022/12/31 06:40:22;;;;;;;45.53;18.83;;;;;;;6.98;70.92;100329.22;6039640;23;20174;-86
2022/12/31 06:42:47;;;;;;;49.53;17.33;;;;;;;7.10;70.99;100328.16;6014092;23;20221;-87
2022/12/31 06:45:13;;;;;;;49.23;18.27;;;;;;;7.20;70.99;100327.94;6039048;23;20153;-87
2022/12/31 06:47:38;;;;;;;39.83;16.03;;;;;;;7.31;71.27;100332.94;6039027;23;20155;-87
2022/12/31 06:50:04;;;;;;;45.50;15.20;;;;;;;7.39;71.57;100331.88;6039087;23;20150;-86
2022/12/31 06:52:29;;;;;;;42.23;17.03;;;;;;;7.48;71.10;100338.66;6039272;23;20598;-86
2022/12/31 06:54:55;;;;;;;36.47;16.00;;;;;;;7.59;71.26;100334.06;6039234;23;20192;-86
2022/12/31 06:57:22;;;;;;;20.50;10.33;;;;;;;7.69;70.82;100340.81;6038925;23;20650;-86
2022/12/31 06:59:48;;;;;;;20.13;9.70;;;;;;;7.79;71.45;100334.50;6014084;23;20567;-86
2022/12/31 07:03:01;;;;;;;20.30;10.20;;;;;;;7.92;70.98;100337.69;6039679;23;20607;-86
2022/12/31 07:05:29;;;;;;;24.60;9.43;;;;;;;8.07;71.35;100343.41;6041095;23;20143;-86
2022/12/31 07:08:15;;;;;;;33.10;12.73;;;;;;;8.28;70.64;100351.69;6040784;23;20158;-86
2022/12/31 07:10:53;;;;;;;25.43;12.37;;;;;;;8.45;69.93;100350.38;6015698;23;20565;-87
2022/12/31 07:13:22;;;;;;;17.70;9.33;;;;;;;8.53;69.99;100347.56;6039485;23;20565;-87
2022/12/31 07:16:24;;;;;;;16.00;6.80;;;;;;;8.56;68.70;100347.50;6040553;23;20704;-87
2022/12/31 07:18:59;;;;;;;68.60;20.60;;;;;;;8.63;68.65;100354.28;6041246;23;20141;-86
2022/12/31 07:21:34;;;;;;;39.47;13.77;;;;;;;8.83;68.66;100356.41;6040858;23;20217;-86
2022/12/31 07:23:59;;;;;;;24.13;10.17;;;;;;;8.97;68.60;100339.44;6040957;23;20148;-86
2022/12/31 07:26:34;;;;;;;21.70;9.20;;;;;;;9.13;68.08;100350.34;6040576;23;20177;-86
2022/12/31 07:29:16;;;;;;;22.83;11.87;;;;;;;9.24;68.02;100348.28;6040585;23;20456;-86
2022/12/31 07:32:06;;;;;;;43.47;16.20;;;;;;;9.39;68.05;100355.69;6039156;23;20562;-86
2022/12/31 07:35:20;;;;;;;21.73;9.90;;;;;;;9.48;67.54;100368.53;6040358;23;20149;-86
2022/12/31 07:38:06;;;;;;;13.93;6.13;;;;;;;9.64;67.26;100364.53;6038824;23;20626;-87
2022/12/31 07:40:47;;;;;;;13.27;7.40;;;;;;;9.79;66.08;100363.25;6039483;23;20168;-86
2022/12/31 07:43:26;;;;;;;15.33;6.43;;;;;;;9.92;65.62;100369.84;6040307;23;20143;-87
2022/12/31 07:46:01;;;;;;;17.73;7.53;;;;;;;9.89;65.06;100364.69;6040556;23;20134;-86
2022/12/31 07:48:28;;;;;;;13.50;6.70;;;;;;;9.92;64.53;100363.75;6040348;23;20145;-86
2022/12/31 07:50:55;;;;;;;10.20;6.13;;;;;;;10.06;64.86;100369.44;6014366;23;20477;-85
2022/12/31 07:53:23;;;;;;;12.70;6.77;;;;;;;10.27;64.55;100372.25;6015293;23;20182;-85
2022/12/31 07:55:54;;;;;;;11.30;6.57;;;;;;;10.40;64.50;100370.94;6040251;23;20618;-86
2022/12/31 07:58:34;;;;;;;14.33;6.37;;;;;;;10.52;64.28;100366.22;6040431;23;20164;-85
2022/12/31 08:01:01;;;;;;;26.77;10.67;;;;;;;10.58;64.84;100373.91;6040547;23;20213;-86
2022/12/31 08:03:45;;;;;;;22.90;9.37;;;;;;;10.70;65.36;100382.22;6037868;23;20164;-86
2022/12/31 08:06:13;;;;;;;17.20;8.20;;;;;;;10.78;65.47;100376.69;6039490;23;20138;-86
2022/12/31 08:08:52;;;;;;;20.37;10.07;;;;;;;10.85;65.48;100386.94;6040079;23;20174;-85
2022/12/31 08:11:42;;;;;;;20.40;10.30;;;;;;;10.95;64.66;100382.25;6040778;23;20205;-84
2022/12/31 08:14:12;;;;;;;22.77;10.37;;;;;;;11.04;64.79;100384.53;6039925;23;20174;-86
2022/12/31 08:16:38;;;;;;;18.47;8.80;;;;;;;11.14;64.01;100382.47;6039675;23;20204;-86
2022/12/31 08:19:04;;;;;;;18.57;8.87;;;;;;;11.25;63.32;100391.66;6040437;23;20590;-86
2022/12/31 08:21:36;;;;;;;18.60;8.20;;;;;;;11.40;63.81;100390.28;6015111;23;20241;-86
2022/12/31 08:24:11;;;;;;;20.10;9.47;;;;;;;11.45;62.26;100388.34;6040045;23;20217;-86
2022/12/31 08:26:54;;;;;;;21.60;11.20;;;;;;;11.60;61.84;100391.28;6015145;23;20162;-86
2022/12/31 08:29:39;;;;;;;23.67;11.70;;;;;;;11.81;61.16;100380.91;6040750;23;20147;-86
2022/12/31 08:32:24;;;;;;;30.13;12.20;;;;;;;11.97;59.50;100382.91;6040402;23;20608;-86
2022/12/31 08:35:07;;;;;;;26.50;11.77;;;;;;;11.97;59.41;100374.16;6039683;23;20186;-86
2022/12/31 08:37:43;;;;;;;22.53;10.83;;;;;;;12.13;59.94;100370.84;6015261;23;20153;-86
2022/12/31 08:40:15;;;;;;;19.00;9.10;;;;;;;12.23;58.62;100366.97;6040082;23;20155;-86
2022/12/31 08:43:10;;;;;;;20.77;9.57;;;;;;;12.40;58.20;100374.16;6040025;23;20155;-86
2022/12/31 08:45:48;;;;;;;19.37;8.77;;;;;;;12.56;57.53;100370.00;6038688;23;20151;-86
2022/12/31 08:48:35;;;;;;;22.87;9.80;;;;;;;12.62;57.03;100367.13;6014296;23;20224;-86
2022/12/31 08:51:01;;;;;;;21.63;11.10;;;;;;;12.77;57.40;100369.09;6040068;23;20515;-86
2022/12/31 08:53:27;;;;;;;27.30;11.33;;;;;;;12.97;56.40;100359.53;6039889;23;20156;-86
2022/12/31 08:56:01;;;;;;;24.03;11.40;;;;;;;12.95;56.54;100355.16;6039924;23;20180;-86
2022/12/31 08:58:27;;;;;;;38.50;14.30;;;;;;;13.22;55.67;100355.78;6039740;23;20141;-86
2022/12/31 09:00:56;;;;;;;25.40;12.90;;;;;;;13.30;54.08;100350.19;6039926;23;20157;-87
2022/12/31 09:03:28;;;;;;;26.33;12.23;;;;;;;13.27;53.55;100345.03;6014937;23;20693;-86
2022/12/31 09:06:28;;;;;;;23.17;10.90;;;;;;;13.49;53.89;100348.44;6039544;23;20537;-86
2022/12/31 09:09:05;;;;;;;23.70;10.73;;;;;;;13.69;53.08;100352.78;6039157;23;20134;-87
2022/12/31 09:11:43;;;;;;;20.47;10.13;;;;;;;13.89;53.19;100344.81;6015049;23;20496;-89
2022/12/31 09:14:40;;;;;;;15.63;8.93;;;;;;;13.90;52.85;100347.38;6014402;23;20173;-87
2022/12/31 09:17:24;;;;;;;18.03;8.97;;;;;;;14.04;52.87;100352.00;6038507;23;20161;-87
2022/12/31 09:19:50;;;;;;;20.07;9.07;;;;;;;14.08;52.52;100345.66;6039734;23;20157;-87
2022/12/31 09:22:16;;;;;;;19.50;9.57;;;;;;;14.20;52.62;100350.38;6039955;23;20163;-87
2022/12/31 09:24:42;;;;;;;16.70;8.57;;;;;;;14.47;52.98;100332.34;6014057;23;20236;-87
2022/12/31 09:27:31;;;;;;;19.63;8.73;;;;;;;14.75;52.19;100328.25;6040286;23;20221;-87
2022/12/31 09:30:06;;;;;;;16.63;8.53;;;;;;;14.75;51.18;100327.41;6039148;23;20148;-88
2022/12/31 09:32:53;;;;;;;15.93;7.90;;;;;;;14.72;50.92;100338.13;6040293;23;20259;-88
2022/12/31 09:35:46;;;;;;;14.70;6.00;;;;;;;14.62;51.50;100326.34;6014408;23;20252;-87
2022/12/31 09:38:27;;;;;;;16.10;7.23;;;;;;;14.94;51.40;100327.31;6014662;23;20164;-88
2022/12/31 09:41:13;;;;;;;14.13;7.63;;;;;;;15.24;50.64;100337.16;6040004;23;20247;-87
2022/12/31 09:44:23;;;;;;;19.47;9.30;;;;;;;15.66;49.87;100326.09;6040172;23;20184;-87
2022/12/31 09:47:20;;;;;;;17.87;8.83;;;;;;;15.78;50.78;100325.44;6010789;23;20239;-87
2022/12/31 09:50:14;;;;;;;20.30;8.47;;;;;;;15.85;50.17;100318.84;6002058;23;20169;-87
2022/12/31 09:53:08;;;;;;;16.57;8.10;;;;;;;15.76;50.19;100318.53;6014582;23;20156;-87
2022/12/31 09:55:44;;;;;;;15.60;7.80;;;;;;;15.87;50.28;100318.78;6039634;23;20185;-87
2022/12/31 09:58:34;;;;;;;16.30;6.97;;;;;;;16.11;48.46;100312.13;6039016;23;20169;-87
2022/12/31 10:01:22;;;;;;;15.00;7.33;;;;;;;16.22;48.02;100306.22;6039041;23;20145;-87
2022/12/31 10:04:18;;;;;;;13.80;6.97;;;;;;;16.32;47.87;100297.69;6039985;23;20190;-87
2022/12/31 10:07:02;;;;;;;13.80;6.63;;;;;;;16.16;47.05;100296.84;6039811;23;20156;-87
2022/12/31 10:09:45;;;;;;;14.00;6.10;;;;;;;16.25;47.02;100293.66;6039520;23;20218;-87
2022/12/31 10:12:34;;;;;;;15.07;6.83;;;;;;;16.21;46.63;100283.34;6038940;23;20153;-87
2022/12/31 10:15:18;;;;;;;13.73;7.37;;;;;;;16.43;46.48;100289.94;6038771;23;20193;-87
2022/12/31 10:18:22;;;;;;;18.70;7.87;;;;;;;16.56;45.21;100285.69;6013945;23;20300;-87
2022/12/31 10:21:11;;;;;;;14.93;7.27;;;;;;;16.58;46.14;100280.31;5983878;23;20168;-87
2022/12/31 10:23:59;;;;;;;17.10;6.73;;;;;;;16.78;45.16;100285.25;6038295;23;20147;-87
2022/12/31 10:26:53;;;;;;;14.33;7.07;;;;;;;16.56;44.53;100276.91;6037374;23;20160;-86
2022/12/31 10:29:40;;;;;;;15.10;6.93;;;;;;;16.38;44.85;100276.13;6034213;23;20244;-87
2022/12/31 10:32:16;;;;;;;15.40;6.83;;;;;;;16.46;44.79;100268.59;6038702;23;20165;-87
2022/12/31 10:34:54;;;;;;;13.37;7.10;;;;;;;16.54;44.94;100266.38;6038927;23;20149;-87
2022/12/31 10:37:26;;;;;;;12.30;6.23;;;;;;;16.59;44.91;100263.47;6040098;23;20233;-87
2022/12/31 10:40:23;;;;;;;14.30;6.93;;;;;;;16.97;44.60;100259.38;6015311;23;20293;-87
2022/12/31 10:42:54;;;;;;;14.67;7.07;;;;;;;17.23;44.08;100255.13;6039602;23;20146;-87
2022/12/31 10:45:54;;;;;;;12.33;6.00;;;;;;;17.50;43.29;100258.72;6016128;23;20527;-87
2022/12/31 10:48:57;;;;;;;10.10;5.33;;;;;;;17.83;42.85;100244.25;6038083;23;20172;-87
2022/12/31 10:51:23;;;;;;;14.77;6.83;;;;;;;17.78;42.58;100245.44;6039302;23;20146;-87
2022/12/31 10:54:06;;;;;;;14.43;7.27;;;;;;;17.80;42.67;100247.97;6040242;23;20157;-87
2022/12/31 10:57:28;;;;;;;13.53;7.00;;;;;;;17.98;42.45;100251.22;6040223;23;20175;-87
2022/12/31 11:00:16;;;;;;;15.20;6.63;;;;;;;17.78;42.21;100245.44;6040360;23;20624;-87
2022/12/31 11:03:17;;;;;;;12.07;6.83;;;;;;;18.17;42.80;100244.63;6038452;23;20493;-87
2022/12/31 11:06:10;;;;;;;12.30;5.70;;;;;;;18.62;40.63;100240.72;5951776;24;20708;-87
2022/12/31 11:09:18;;;;;;;11.43;6.10;;;;;;;18.72;39.98;100239.13;6036497;23;20162;-88
2022/12/31 11:12:15;;;;;;;12.90;5.67;;;;;;;18.57;40.82;100234.88;6038339;23;20159;-87
2022/12/31 11:14:55;;;;;;;14.80;6.30;;;;;;;18.53;41.13;100236.03;6038276;23;20250;-88
2022/12/31 11:17:50;;;;;;;12.90;5.90;;;;;;;18.53;40.41;100224.53;6038745;23;20162;-89
2022/12/31 11:20:35;;;;;;;13.10;5.80;;;;;;;18.77;40.61;100236.16;6039286;23;20155;-89
2022/12/31 11:23:34;;;;;;;11.40;5.53;;;;;;;18.85;40.54;100223.19;6038380;23;20232;-89
2022/12/31 11:26:37;;;;;;;8.97;5.20;;;;;;;19.07;40.43;100222.56;6014459;23;20594;-88
2022/12/31 11:29:17;;;;;;;9.23;5.10;;;;;;;19.11;39.05;100224.03;6013412;23;20236;-89
2022/12/31 11:32:09;;;;;;;12.13;5.13;;;;;;;19.18;38.36;100220.00;6016078;23;20176;-89
2022/12/31 11:34:40;;;;;;;8.83;4.23;;;;;;;19.34;38.63;100215.31;6027885;23;20165;-89
2022/12/31 11:37:21;;;;;;;9.37;4.73;;;;;;;19.42;38.23;100219.13;6015934;23;20165;-90
2022/12/31 11:39:54;;;;;;;13.10;5.80;;;;;;;19.41;39.38;100213.91;6041497;23;20152;-89
2022/12/31 11:42:40;;;;;;;8.07;4.63;;;;;;;19.66;37.91;100208.50;6040546;23;20225;-89
2022/12/31 11:45:43;;;;;;;9.30;4.13;;;;;;;19.38;37.46;100214.13;6040971;23;20189;-90
2022/12/31 11:48:26;;;;;;;8.43;4.30;;;;;;;19.58;38.00;100202.91;6040777;23;20153;-88
2022/12/31 11:51:27;;;;;;;10.93;4.33;;;;;;;19.66;38.02;100208.50;6015722;23;20630;-89
2022/12/31 11:54:11;;;;;;;8.67;3.80;;;;;;;19.71;38.55;100203.72;6040331;23;20193;-90
2022/12/31 11:56:41;;;;;;;8.53;4.13;;;;;;;19.92;36.87;100204.78;6039378;23;20205;-89
2022/12/31 11:59:12;;;;;;;6.23;3.27;;;;;;;19.92;37.69;100204.78;6040140;23;20142;-88
2022/12/31 12:01:53;;;;;;;7.33;3.60;;;;;;;19.95;36.92;100201.91;6039414;23;20158;-90
2022/12/31 12:04:23;;;;;;;7.60;3.70;;;;;;;19.99;37.48;100203.41;6015865;23;20149;-90